Time;durP1;ratioP1;P1;durP2;ratioP2;P2;SDS_P1;SDS_P2;PMS_P1;PMS_P2;Temp;Humidity;BMP_temperature;BMP_pressure;BME280_temperature;BME280_humidity;BME280_pressure;Samples;Min_cycle;Max_cycle;Signal;HPM_P1;HPM_P2
2022/09/02 00:01:23;;;;;;;5.18;1.30;;;14.80;99.50;;;;;;4931977;28;232067;-72
2022/09/02 00:03:53;;;;;;;5.97;1.40;;;14.90;99.50;;;;;;4982059;28;20058;-71
2022/09/02 00:06:20;;;;;;;8.60;1.50;;;14.80;99.50;;;;;;4938574;28;213782;-71
2022/09/02 00:08:46;;;;;;;7.32;1.30;;;14.70;99.60;;;;;;4984724;28;20050;-71
2022/09/02 00:11:17;;;;;;;8.90;1.60;;;14.70;99.60;;;;;;4944662;28;212515;-70
2022/09/02 00:13:44;;;;;;;5.85;1.40;;;14.70;99.60;;;;;;4991341;28;20619;-70
2022/09/02 00:16:11;;;;;;;6.93;1.98;;;14.70;99.70;;;;;;4950597;28;206976;-71
2022/09/02 00:18:38;;;;;;;4.72;1.40;;;14.60;99.70;;;;;;4997231;28;20388;-71
2022/09/02 00:21:04;;;;;;;7.15;1.40;;;14.60;99.80;;;;;;4949498;28;225942;-71
2022/09/02 00:23:32;;;;;;;6.13;1.38;;;14.60;99.80;;;;;;4986688;28;20050;-70
2022/09/02 00:25:58;;;;;;;5.65;1.27;;;14.60;99.80;;;;;;4929784;28;213889;-72
2022/09/02 00:28:24;;;;;;;6.68;1.20;;;14.50;99.90;;;;;;4985878;28;20502;-70
2022/09/02 00:30:51;;;;;;;6.30;1.58;;;14.50;99.90;;;;;;4941204;28;225072;-71
2022/09/02 00:33:17;;;;;;;7.78;1.50;;;14.40;99.90;;;;;;4996969;28;20617;-71
2022/09/02 00:35:43;;;;;;;6.53;1.60;;;14.40;99.90;;;;;;4944357;28;212711;-71
2022/09/02 00:38:09;;;;;;;4.82;1.20;;;14.40;99.90;;;;;;4997509;28;20053;-72
2022/09/02 00:40:36;;;;;;;5.57;1.25;;;14.40;99.90;;;;;;4945864;28;211347;-72
2022/09/02 00:43:07;;;;;;;4.60;1.25;;;14.30;99.90;;;;;;4996197;28;20042;-72
2022/09/02 00:45:34;;;;;;;8.52;1.52;;;14.40;99.90;;;;;;4943848;28;205583;-72
2022/09/02 00:48:01;;;;;;;5.75;1.45;;;14.30;99.90;;;;;;4990149;28;20069;-72
2022/09/02 00:50:32;;;;;;;8.00;1.30;;;14.20;99.90;;;;;;4926820;28;200982;-72
2022/09/02 00:53:04;;;;;;;5.72;1.40;;;14.20;99.90;;;;;;5000296;28;20054;-72
2022/09/02 00:55:37;;;;;;;5.28;1.35;;;14.20;99.90;;;;;;4938410;28;215973;-72
2022/09/02 00:58:08;;;;;;;8.02;1.50;;;14.20;99.90;;;;;;4994579;28;20057;-72
2022/09/02 01:00:41;;;;;;;5.47;1.50;;;14.10;99.90;;;;;;4938562;28;211576;-70
2022/09/02 01:03:10;;;;;;;5.13;1.42;;;14.10;99.90;;;;;;4987349;28;20049;-71
2022/09/02 01:05:43;;;;;;;6.53;1.40;;;14.10;99.90;;;;;;4937140;28;208414;-70
2022/09/02 01:08:14;;;;;;;5.47;1.42;;;14.10;99.90;;;;;;4968617;28;20058;-70
2022/09/02 01:10:42;;;;;;;7.75;1.50;;;14.00;99.90;;;;;;4936455;28;212416;-70
2022/09/02 01:13:11;;;;;;;6.93;1.30;;;14.00;99.90;;;;;;4989817;28;20685;-71
2022/09/02 01:15:45;;;;;;;5.25;1.15;;;14.00;99.90;;;;;;4940059;28;210467;-70
2022/09/02 01:18:22;;;;;;;7.50;1.40;;;14.00;99.90;;;;;;4995646;28;20062;-70
2022/09/02 01:20:48;;;;;;;7.70;1.60;;;13.90;99.90;;;;;;4935273;28;206799;-71
2022/09/02 01:23:16;;;;;;;6.10;1.38;;;13.90;99.90;;;;;;4979015;28;20054;-70
2022/09/02 01:25:42;;;;;;;5.45;1.40;;;13.90;99.90;;;;;;4944575;28;194016;-70
2022/09/02 01:28:11;;;;;;;6.03;1.60;;;13.80;99.90;;;;;;4983046;28;21954;-71
2022/09/02 01:30:42;;;;;;;7.03;1.60;;;13.80;99.90;;;;;;4955770;28;209899;-71
2022/09/02 01:33:09;;;;;;;7.93;1.60;;;13.80;99.90;;;;;;4993306;28;20061;-71
2022/09/02 01:35:36;;;;;;;5.22;1.40;;;13.80;99.90;;;;;;4948284;28;211172;-71
2022/09/02 01:38:02;;;;;;;6.13;1.48;;;13.80;99.90;;;;;;4981106;28;20512;-71
2022/09/02 01:40:30;;;;;;;5.05;1.40;;;13.80;99.90;;;;;;4941820;28;210474;-70
2022/09/02 01:43:01;;;;;;;5.18;1.35;;;13.70;99.90;;;;;;4990586;28;20061;-71
2022/09/02 01:45:28;;;;;;;;;;;13.60;99.90;;;;;;4941626;28;218766;-71
2022/09/02 01:47:55;;;;;;;5.95;1.42;;;13.70;99.90;;;;;;5001471;28;20020;-71
2022/09/02 01:50:21;;;;;;;6.40;1.45;;;13.60;99.90;;;;;;4931611;28;271637;-71
2022/09/02 01:52:47;;;;;;;5.95;1.33;;;13.60;99.90;;;;;;4998216;28;20065;-70
2022/09/02 01:55:13;;;;;;;5.57;1.60;;;13.60;99.90;;;;;;4949479;28;209961;-72
2022/09/02 01:57:39;;;;;;;8.32;1.50;;;13.60;99.90;;;;;;4992920;28;20069;-71
2022/09/02 02:00:08;;;;;;;7.47;1.60;;;13.50;99.90;;;;;;4934136;28;209432;-71
2022/09/02 02:02:34;;;;;;;6.20;1.58;;;13.50;99.90;;;;;;4998448;28;20047;-71
2022/09/02 02:05:01;;;;;;;6.20;1.60;;;13.50;99.90;;;;;;4918758;28;244848;-71
2022/09/02 02:07:27;;;;;;;4.75;1.25;;;13.50;99.90;;;;;;4981244;28;20057;-71
2022/09/02 02:09:53;;;;;;;4.68;1.40;;;13.40;99.90;;;;;;4977862;28;224628;-71
2022/09/02 02:12:19;;;;;;;6.43;1.48;;;13.40;99.90;;;;;;4970144;28;211208;-70
2022/09/02 02:14:46;;;;;;;5.03;1.40;;;13.40;99.90;;;;;;4986619;28;20050;-70
2022/09/02 02:17:12;;;;;;;6.93;1.60;;;13.30;99.90;;;;;;4932969;28;166799;-71
2022/09/02 02:19:39;;;;;;;6.95;1.48;;;13.40;99.90;;;;;;4987235;28;20091;-71
2022/09/02 02:22:05;;;;;;;6.72;1.60;;;13.30;99.90;;;;;;4925590;28;230274;-70
2022/09/02 02:24:31;;;;;;;6.00;1.50;;;13.30;99.90;;;;;;4977235;28;20054;-70
2022/09/02 02:26:57;;;;;;;6.53;1.60;;;13.30;99.90;;;;;;4949874;28;217114;-71
2022/09/02 02:29:23;;;;;;;6.28;1.55;;;13.30;99.90;;;;;;4988446;28;20069;-71
2022/09/02 02:31:50;;;;;;;6.55;1.60;;;13.30;99.90;;;;;;4954092;28;211823;-71
2022/09/02 02:34:16;;;;;;;7.13;1.70;;;13.30;99.90;;;;;;4986435;28;20049;-71
2022/09/02 02:36:43;;;;;;;6.82;1.33;;;13.30;99.90;;;;;;4960506;28;208129;-71
2022/09/02 02:39:10;;;;;;;8.07;1.55;;;13.20;99.90;;;;;;4985642;28;20054;-71
2022/09/02 02:41:38;;;;;;;9.30;1.70;;;13.20;99.90;;;;;;4931191;28;209027;-71
2022/09/02 02:44:04;;;;;;;6.03;1.42;;;13.30;99.90;;;;;;4982285;28;20066;-71
2022/09/02 02:46:32;;;;;;;6.15;1.60;;;13.30;99.90;;;;;;4932505;28;206739;-71
2022/09/02 02:48:58;;;;;;;6.15;1.27;;;13.30;99.90;;;;;;4988064;28;20062;-71
2022/09/02 02:51:25;;;;;;;4.93;1.40;;;13.30;99.90;;;;;;4950102;28;210581;-71
2022/09/02 02:53:51;;;;;;;5.50;1.38;;;13.30;99.90;;;;;;4985741;28;20054;-71
2022/09/02 02:56:17;;;;;;;5.15;1.40;;;13.30;99.90;;;;;;4938053;28;206169;-71
2022/09/02 02:58:44;;;;;;;8.18;1.70;;;13.30;99.90;;;;;;4997618;28;20058;-71
2022/09/02 03:01:10;;;;;;;6.20;1.60;;;13.30;99.90;;;;;;4950551;28;209729;-71
2022/09/02 03:03:36;;;;;;;5.55;1.60;;;13.30;99.90;;;;;;4986279;28;20061;-72
2022/09/02 03:06:02;;;;;;;7.20;1.40;;;13.30;99.90;;;;;;4942101;28;209145;-72
2022/09/02 03:08:29;;;;;;;7.57;1.50;;;13.30;99.90;;;;;;4979272;28;20058;-72
2022/09/02 03:10:56;;;;;;;5.13;1.52;;;13.30;99.90;;;;;;4932712;28;224233;-72
2022/09/02 03:13:24;;;;;;;5.80;1.50;;;13.20;99.90;;;;;;4980027;28;20069;-72
2022/09/02 03:15:51;;;;;;;7.70;1.70;;;13.20;99.90;;;;;;4940161;28;209665;-72
2022/09/02 03:18:18;;;;;;;4.60;1.30;;;13.20;99.90;;;;;;4990651;28;20914;-71
2022/09/02 03:20:44;;;;;;;7.35;2.00;;;13.20;99.90;;;;;;4961037;28;205699;-72
2022/09/02 03:23:12;;;;;;;7.55;1.60;;;13.20;99.90;;;;;;4975992;28;20057;-71
2022/09/02 03:25:42;;;;;;;5.75;1.50;;;13.20;99.90;;;;;;4944914;28;218950;-71
2022/09/02 03:28:09;;;;;;;6.80;1.60;;;13.10;99.90;;;;;;4983991;28;20051;-71
2022/09/02 03:30:37;;;;;;;7.60;1.67;;;13.10;99.90;;;;;;4947586;28;208313;-72
2022/09/02 03:33:05;;;;;;;5.65;1.70;;;13.10;99.90;;;;;;5001824;28;20066;-71
2022/09/02 03:35:32;;;;;;;10.18;1.92;;;13.10;99.90;;;;;;4956295;28;207648;-71
2022/09/02 03:37:59;;;;;;;5.07;1.40;;;13.10;99.90;;;;;;4985902;28;20065;-71
2022/09/02 03:40:26;;;;;;;10.32;1.55;;;13.10;99.90;;;;;;4946719;28;207662;-70
2022/09/02 03:42:53;;;;;;;5.43;1.55;;;13.10;99.90;;;;;;4986664;28;20523;-71
2022/09/02 03:45:20;;;;;;;5.18;1.50;;;13.00;99.90;;;;;;4943297;28;223435;-71
2022/09/02 03:47:52;;;;;;;6.38;1.60;;;13.00;99.90;;;;;;4984933;28;20053;-70
2022/09/02 03:50:21;;;;;;;7.22;1.50;;;12.90;99.90;;;;;;4944176;28;224807;-70
2022/09/02 03:52:48;;;;;;;8.23;1.50;;;12.90;99.90;;;;;;4990709;28;20057;-70
2022/09/02 03:55:14;;;;;;;6.15;1.60;;;12.90;99.90;;;;;;4948017;28;212606;-71
2022/09/02 03:57:41;;;;;;;8.18;1.83;;;12.80;99.90;;;;;;4992568;28;20058;-70
2022/09/02 04:00:09;;;;;;;5.93;1.73;;;12.80;99.90;;;;;;4944203;28;227786;-70
2022/09/02 04:02:36;;;;;;;6.25;1.75;;;12.80;99.90;;;;;;5000670;28;20061;-69
2022/09/02 04:05:02;;;;;;;6.43;1.80;;;12.70;99.90;;;;;;4938772;28;212173;-70
2022/09/02 04:07:28;;;;;;;7.65;1.70;;;12.70;99.90;;;;;;4986207;28;20047;-70
2022/09/02 04:09:55;;;;;;;8.25;1.90;;;12.70;99.90;;;;;;4968691;28;217305;-71
2022/09/02 04:12:21;;;;;;;7.50;1.80;;;12.60;99.90;;;;;;4943768;28;204845;-71
2022/09/02 04:14:48;;;;;;;6.93;1.77;;;12.60;99.90;;;;;;4987828;28;20074;-70
2022/09/02 04:17:14;;;;;;;4.88;1.48;;;12.60;99.90;;;;;;4954318;28;210332;-71
2022/09/02 04:19:40;;;;;;;6.70;1.83;;;12.60;99.90;;;;;;4986164;28;20062;-72
2022/09/02 04:22:07;;;;;;;6.05;1.58;;;12.50;99.90;;;;;;4938750;28;184321;-71
2022/09/02 04:24:33;;;;;;;6.40;1.90;;;12.50;99.90;;;;;;4985507;28;20071;-71
2022/09/02 04:27:00;;;;;;;7.05;1.90;;;12.50;99.90;;;;;;4936361;28;203817;-71
2022/09/02 04:29:26;;;;;;;7.47;1.98;;;12.50;99.90;;;;;;4991155;28;20057;-71
2022/09/02 04:31:53;;;;;;;8.20;1.80;;;12.40;99.90;;;;;;4955610;28;209168;-71
2022/09/02 04:34:19;;;;;;;6.15;1.65;;;12.50;99.90;;;;;;4985088;28;20427;-71
2022/09/02 04:36:45;;;;;;;6.53;1.80;;;12.40;99.90;;;;;;4950776;28;213399;-71
2022/09/02 04:39:12;;;;;;;8.00;1.90;;;12.50;99.90;;;;;;4990519;28;20058;-71
2022/09/02 04:41:39;;;;;;;7.78;1.80;;;12.40;99.90;;;;;;4930312;28;214874;-72
2022/09/02 04:44:06;;;;;;;8.15;1.80;;;12.30;99.90;;;;;;4982034;28;20050;-70
2022/09/02 04:46:32;;;;;;;7.15;1.80;;;12.40;99.90;;;;;;4947347;28;218122;-71
2022/09/02 04:48:58;;;;;;;6.55;1.70;;;12.40;99.90;;;;;;4989828;28;20466;-70
2022/09/02 04:51:25;;;;;;;7.75;2.10;;;12.40;99.90;;;;;;4936575;28;222307;-72
2022/09/02 04:53:52;;;;;;;8.23;2.00;;;12.30;99.90;;;;;;4981701;28;20050;-71
2022/09/02 04:56:22;;;;;;;9.60;2.08;;;12.30;99.90;;;;;;4953361;28;213254;-70
2022/09/02 04:58:50;;;;;;;6.90;2.10;;;12.30;99.90;;;;;;4999049;28;20039;-71
2022/09/02 05:01:23;;;;;;;8.32;1.80;;;12.30;99.90;;;;;;4944606;28;209917;-70
2022/09/02 05:03:50;;;;;;;7.25;2.10;;;12.30;99.90;;;;;;4982017;28;20065;-70
2022/09/02 05:06:20;;;;;;;6.95;1.80;;;12.30;99.90;;;;;;4938267;28;220683;-71
2022/09/02 05:08:47;;;;;;;6.82;1.70;;;12.30;99.90;;;;;;4984951;28;20073;-71
2022/09/02 05:11:20;;;;;;;9.23;2.05;;;12.30;99.90;;;;;;4926468;28;216581;-71
2022/09/02 05:13:50;;;;;;;6.50;1.95;;;12.30;99.90;;;;;;4989354;28;20054;-69
2022/09/02 05:16:19;;;;;;;7.30;2.10;;;12.30;99.90;;;;;;4932888;28;213027;-70
2022/09/02 05:18:45;;;;;;;7.63;2.00;;;12.30;99.90;;;;;;4982915;28;20459;-70
2022/09/02 05:21:12;;;;;;;6.47;2.00;;;12.40;99.90;;;;;;4937574;28;206576;-70
2022/09/02 05:23:38;;;;;;;9.05;2.13;;;12.30;99.90;;;;;;4963635;28;20050;-70
2022/09/02 05:26:06;;;;;;;7.60;2.00;;;12.40;99.90;;;;;;4950008;28;218570;-70
2022/09/02 05:28:33;;;;;;;9.55;2.08;;;12.40;99.90;;;;;;4999778;28;20061;-70
2022/09/02 05:31:11;;;;;;;6.63;2.00;;;12.40;99.90;;;;;;4949067;28;198547;-71
2022/09/02 05:33:39;;;;;;;6.85;2.08;;;12.50;99.90;;;;;;4983114;28;20066;-71
2022/09/02 05:36:08;;;;;;;6.47;1.77;;;12.50;99.90;;;;;;4933138;28;218967;-70
2022/09/02 05:38:34;;;;;;;8.43;2.22;;;12.50;99.90;;;;;;4987373;28;21930;-71
2022/09/02 05:41:23;;;;;;;8.38;2.10;;;12.50;99.90;;;;;;4936884;28;217353;-71
2022/09/02 05:43:55;;;;;;;6.18;2.00;;;12.60;99.90;;;;;;4983598;28;20066;-71
2022/09/02 05:46:23;;;;;;;13.05;2.03;;;12.60;99.90;;;;;;4945729;28;227690;-71
2022/09/02 05:49:06;;;;;;;5.95;1.80;;;12.60;99.90;;;;;;4987125;28;20066;-71
2022/09/02 05:51:44;;;;;;;10.43;2.30;;;12.70;99.90;;;;;;4934061;28;210106;-71
2022/09/02 05:54:16;;;;;;;7.85;2.10;;;12.70;99.90;;;;;;4987963;28;20070;-71
2022/09/02 05:56:45;;;;;;;7.32;1.90;;;12.80;99.90;;;;;;4928616;28;204003;-71
2022/09/02 05:59:12;;;;;;;6.53;2.00;;;12.80;99.90;;;;;;4967596;28;20070;-71
2022/09/02 06:01:38;;;;;;;7.72;2.00;;;12.80;99.90;;;;;;4939050;28;231255;-71
2022/09/02 06:04:05;;;;;;;6.18;1.90;;;12.90;99.90;;;;;;4987609;28;20515;-71
2022/09/02 06:06:32;;;;;;;8.20;1.90;;;12.90;99.90;;;;;;4948073;28;207989;-71
2022/09/02 06:08:59;;;;;;;8.70;2.05;;;13.00;99.90;;;;;;4993277;28;20062;-72
2022/09/02 06:11:27;;;;;;;6.60;2.15;;;13.10;99.90;;;;;;4938545;28;204772;-71
2022/09/02 06:13:54;;;;;;;7.43;2.15;;;13.10;99.90;;;;;;4993626;28;20069;-70
2022/09/02 06:16:21;;;;;;;6.63;2.13;;;13.20;99.90;;;;;;4943186;28;214796;-70
2022/09/02 06:18:49;;;;;;;7.07;2.00;;;13.30;99.90;;;;;;4967506;28;20053;-70
2022/09/02 06:21:16;;;;;;;10.40;2.28;;;13.40;99.90;;;;;;4946831;28;205829;-71
2022/09/02 06:23:43;;;;;;;8.15;2.13;;;13.40;99.90;;;;;;4992215;28;20057;-71
2022/09/02 06:26:12;;;;;;;7.53;2.10;;;13.50;99.90;;;;;;4962817;28;209851;-71
2022/09/02 06:28:39;;;;;;;6.50;2.10;;;13.70;99.90;;;;;;4993516;28;20058;-71
2022/09/02 06:31:17;;;;;;;7.03;2.00;;;13.90;99.90;;;;;;4933974;28;224763;-71
2022/09/02 06:33:46;;;;;;;7.35;1.83;;;14.00;99.90;;;;;;4993058;28;20050;-71
2022/09/02 06:36:15;;;;;;;7.22;2.00;;;14.20;99.90;;;;;;4952525;28;212977;-71
2022/09/02 06:38:43;;;;;;;7.78;2.10;;;14.30;99.90;;;;;;4992559;28;20415;-71
2022/09/02 06:41:12;;;;;;;6.80;2.00;;;14.50;99.90;;;;;;4941761;28;206420;-71
2022/09/02 06:43:38;;;;;;;8.25;2.03;;;14.70;99.90;;;;;;4992066;28;20057;-71
2022/09/02 06:46:06;;;;;;;6.95;1.83;;;15.20;99.90;;;;;;4947786;28;203527;-71
2022/09/02 06:48:33;;;;;;;7.03;2.05;;;15.80;99.90;;;;;;4996435;28;20058;-70
2022/09/02 06:51:00;;;;;;;6.78;2.00;;;16.30;99.90;;;;;;4953188;28;206035;-69
2022/09/02 06:53:26;;;;;;;6.97;1.70;;;16.60;99.90;;;;;;4988152;28;20615;-70
2022/09/02 06:55:52;;;;;;;10.60;1.85;;;17.00;99.90;;;;;;4948886;28;213248;-70
2022/09/02 06:58:18;;;;;;;5.88;1.50;;;17.40;99.90;;;;;;4985624;28;20054;-71
2022/09/02 07:00:44;;;;;;;6.63;1.80;;;17.60;99.90;;;;;;4946022;28;212527;-70
2022/09/02 07:06:09;;;;;;;7.20;1.77;;;18.20;99.90;;;;;;4944550;28;232038;-70
2022/09/02 07:08:37;;;;;;;6.90;1.60;;;18.50;99.70;;;;;;4982116;28;20085;-71
2022/09/02 07:11:04;;;;;;;7.35;1.80;;;18.90;99.50;;;;;;4942545;28;210394;-70
2022/09/02 07:13:31;;;;;;;6.43;1.80;;;19.10;98.70;;;;;;4982120;28;20051;-70
2022/09/02 07:15:57;;;;;;;6.28;1.60;;;19.30;98.50;;;;;;4957412;28;210342;-70
2022/09/02 07:18:23;;;;;;;6.53;1.65;;;19.50;98.20;;;;;;4995221;28;20050;-69
2022/09/02 07:20:50;;;;;;;10.13;1.88;;;19.80;97.90;;;;;;4951880;28;218490;-71
2022/09/02 07:23:16;;;;;;;7.25;1.63;;;20.00;97.40;;;;;;4996895;28;20058;-70
2022/09/02 07:25:42;;;;;;;7.07;1.55;;;20.20;97.00;;;;;;4951968;28;233896;-72
2022/09/02 07:28:10;;;;;;;8.13;1.48;;;20.40;96.80;;;;;;4986190;28;20057;-71
2022/09/02 07:30:38;;;;;;;5.93;1.55;;;20.60;96.30;;;;;;4933998;28;207039;-72
2022/09/02 07:33:04;;;;;;;9.23;1.80;;;20.80;96.40;;;;;;4985422;28;20054;-70
2022/09/02 07:35:30;;;;;;;6.00;1.48;;;21.00;95.60;;;;;;4944182;28;206013;-71
2022/09/02 07:37:56;;;;;;;7.63;1.70;;;21.10;95.40;;;;;;4986570;28;20073;-70
2022/09/02 07:40:23;;;;;;;6.20;1.50;;;21.30;95.10;;;;;;4944978;28;210477;-69
2022/09/02 07:42:49;;;;;;;8.55;1.60;;;21.50;94.90;;;;;;4975557;28;20058;-70
2022/09/02 07:45:16;;;;;;;9.20;1.65;;;21.70;94.60;;;;;;4941878;28;210171;-71
2022/09/02 07:47:42;;;;;;;7.38;1.50;;;22.00;94.20;;;;;;4977660;28;20046;-70
2022/09/02 07:50:09;;;;;;;7.27;1.50;;;22.20;93.60;;;;;;4936168;28;216265;-70
2022/09/02 07:52:35;;;;;;;9.38;1.58;;;22.30;93.00;;;;;;4990686;28;20648;-70
2022/09/02 07:55:01;;;;;;;7.18;1.40;;;22.50;92.80;;;;;;4940354;28;216527;-70
2022/09/02 07:57:28;;;;;;;5.45;1.30;;;22.70;92.80;;;;;;4960957;28;20488;-70
2022/09/02 07:59:54;;;;;;;5.40;1.45;;;22.90;92.20;;;;;;4978839;28;216785;-70
2022/09/02 08:02:20;;;;;;;9.75;1.48;;;23.10;92.20;;;;;;4966494;28;210616;-70
2022/09/02 08:04:46;;;;;;;8.27;1.25;;;23.40;91.90;;;;;;4996983;28;20057;-70
2022/09/02 08:07:12;;;;;;;7.57;1.30;;;23.60;91.10;;;;;;4968556;28;212952;-70
2022/09/02 08:09:38;;;;;;;6.68;1.55;;;23.80;90.50;;;;;;4999195;28;20739;-70
2022/09/02 08:12:05;;;;;;;7.95;1.40;;;24.00;89.90;;;;;;4947612;28;206525;-71
2022/09/02 08:14:32;;;;;;;7.28;1.50;;;24.00;89.70;;;;;;5000752;28;20054;-69
2022/09/02 08:16:58;;;;;;;11.77;1.73;;;24.30;88.50;;;;;;4956883;28;215557;-70
2022/09/02 08:19:24;;;;;;;6.32;1.30;;;24.40;86.90;;;;;;4994195;28;20069;-71
2022/09/02 08:21:50;;;;;;;8.00;1.60;;;24.50;86.00;;;;;;4940398;28;218369;-71
2022/09/02 08:24:16;;;;;;;6.90;1.30;;;24.70;85.60;;;;;;4994825;28;20062;-70
2022/09/02 08:26:42;;;;;;;6.10;1.25;;;25.00;84.20;;;;;;4946617;28;210442;-71
2022/09/02 08:29:09;;;;;;;6.63;1.42;;;25.20;83.70;;;;;;4992899;28;20043;-70
2022/09/02 08:31:38;;;;;;;14.60;1.50;;;25.40;82.00;;;;;;4974203;28;212942;-71
2022/09/02 08:34:05;;;;;;;6.13;1.30;;;25.50;81.50;;;;;;4999840;28;20051;-70
2022/09/02 08:36:31;;;;;;;6.10;1.50;;;25.60;80.60;;;;;;4964213;28;212612;-70
2022/09/02 08:39:00;;;;;;;7.22;1.30;;;25.80;79.50;;;;;;4995936;28;20427;-69
2022/09/02 08:41:40;;;;;;;6.03;1.25;;;26.00;79.40;;;;;;4946075;28;221609;-69
2022/09/02 08:44:09;;;;;;;7.13;1.35;;;26.10;78.00;;;;;;5001026;28;20077;-70
2022/09/02 08:46:36;;;;;;;7.72;1.40;;;26.20;77.20;;;;;;4945312;28;208557;-70
2022/09/02 08:49:07;;;;;;;5.07;1.25;;;26.40;76.90;;;;;;4994314;28;20061;-70
2022/09/02 08:51:36;;;;;;;6.28;1.40;;;26.70;75.80;;;;;;4948765;28;206804;-69
2022/09/02 08:54:08;;;;;;;7.57;1.50;;;26.90;74.30;;;;;;4988094;28;20047;-71
2022/09/02 08:56:35;;;;;;;7.10;1.30;;;27.20;72.00;;;;;;4949017;28;212664;-71
2022/09/02 08:59:02;;;;;;;6.45;1.20;;;27.20;72.40;;;;;;4988406;28;20058;-71
2022/09/02 09:01:37;;;;;;;5.82;1.30;;;27.40;72.00;;;;;;4943368;28;209786;-72
2022/09/02 09:04:09;;;;;;;6.10;1.30;;;27.60;69.60;;;;;;4993853;28;20420;-70
2022/09/02 09:06:41;;;;;;;8.93;1.30;;;27.70;69.10;;;;;;4938565;28;209416;-71
2022/09/02 09:09:43;;;;;;;9.13;1.27;;;27.70;66.60;;;;;;4991485;28;20061;-71
2022/09/02 09:12:28;;;;;;;6.55;1.20;;;28.00;67.20;;;;;;4935933;28;213069;-72
2022/09/02 09:15:06;;;;;;;9.15;1.30;;;28.30;65.50;;;;;;4981528;28;193224;-71
2022/09/02 09:17:56;;;;;;;9.95;1.10;;;28.40;64.80;;;;;;4932005;28;208595;-73
2022/09/02 09:20:30;;;;;;;7.38;1.30;;;28.50;64.70;;;;;;4936089;28;226312;-70
2022/09/02 09:22:58;;;;;;;7.55;1.30;;;28.70;65.20;;;;;;4974018;28;20063;-71
2022/09/02 09:25:28;;;;;;;11.55;1.23;;;28.70;63.30;;;;;;4922916;28;224387;-70
2022/09/02 09:27:59;;;;;;;8.40;1.33;;;28.90;63.40;;;;;;4976555;28;20059;-71
2022/09/02 09:30:26;;;;;;;4.43;1.10;;;29.10;63.00;;;;;;4928742;28;220189;-69
2022/09/02 09:32:58;;;;;;;6.63;1.10;;;29.30;61.70;;;;;;4978505;28;20058;-71
2022/09/02 09:35:26;;;;;;;5.28;1.10;;;29.50;61.20;;;;;;4931182;28;222545;-71
2022/09/02 09:37:53;;;;;;;8.15;1.30;;;29.60;60.80;;;;;;5009432;28;20042;-70
2022/09/02 09:40:24;;;;;;;10.00;1.30;;;29.90;59.80;;;;;;4941813;28;212961;-70
2022/09/02 09:43:07;;;;;;;5.85;1.00;;;29.90;59.30;;;;;;4975438;28;20057;-69
2022/09/02 09:45:41;;;;;;;6.53;1.17;;;29.90;58.50;;;;;;4967850;28;212655;-70
2022/09/02 09:48:22;;;;;;;8.50;1.30;;;30.20;58.90;;;;;;4997392;28;20477;-71
2022/09/02 09:50:48;;;;;;;8.57;1.20;;;30.60;58.00;;;;;;4949410;28;208273;-70
2022/09/02 09:53:24;;;;;;;7.50;1.30;;;30.90;57.30;;;;;;4973119;28;20050;-70
2022/09/02 09:55:54;;;;;;;8.25;1.45;;;31.00;55.70;;;;;;4951472;28;214828;-70
2022/09/02 09:58:32;;;;;;;6.07;1.10;;;30.90;55.80;;;;;;4993565;28;20053;-71
2022/09/02 10:01:23;;;;;;;8.90;1.23;;;31.10;54.90;;;;;;4926085;28;221089;-70
2022/09/02 10:04:07;;;;;;;7.72;1.25;;;31.40;53.80;;;;;;4991126;28;20061;-70
2022/09/02 10:06:36;;;;;;;5.28;1.00;;;31.20;51.60;;;;;;4965190;28;212809;-71
2022/09/02 10:09:17;;;;;;;8.02;1.48;;;31.20;53.10;;;;;;4994008;28;20051;-70
2022/09/02 10:11:57;;;;;;;6.28;1.00;;;31.40;51.20;;;;;;4959809;28;220455;-70
2022/09/02 10:14:31;;;;;;;5.63;1.08;;;31.40;51.10;;;;;;4996248;28;20101;-70
2022/09/02 10:17:00;;;;;;;5.72;1.00;;;31.50;52.10;;;;;;4961613;28;237086;-70
2022/09/02 10:19:41;;;;;;;3.47;1.00;;;31.90;50.70;;;;;;4992210;28;20058;-70
2022/09/02 10:22:26;;;;;;;7.80;1.25;;;32.10;51.80;;;;;;4950217;28;208926;-71
2022/09/02 10:25:19;;;;;;;7.28;1.00;;;32.10;50.70;;;;;;4992187;28;20061;-71
2022/09/02 10:28:12;;;;;;;6.75;1.10;;;32.30;49.70;;;;;;4932037;28;206175;-71
2022/09/02 10:31:07;;;;;;;6.03;0.98;;;32.30;48.60;;;;;;4944064;28;207834;-70
2022/09/02 10:33:46;;;;;;;4.68;1.00;;;32.20;47.90;;;;;;4987452;28;20065;-69
2022/09/02 10:36:37;;;;;;;7.40;1.02;;;32.30;48.40;;;;;;4952921;28;213045;-70
2022/09/02 10:39:20;;;;;;;6.15;1.00;;;32.40;48.00;;;;;;4994057;28;20507;-71
2022/09/02 10:41:47;;;;;;;5.10;1.02;;;32.60;46.70;;;;;;4935782;28;212987;-70
2022/09/02 10:44:35;;;;;;;5.32;1.00;;;32.80;47.20;;;;;;4990158;28;20061;-70
2022/09/02 10:47:16;;;;;;;4.25;1.05;;;33.00;46.00;;;;;;4945377;28;209720;-71
2022/09/02 10:49:49;;;;;;;6.93;1.00;;;33.00;46.20;;;;;;4989872;28;20061;-71
2022/09/02 10:52:46;;;;;;;7.93;1.10;;;32.80;46.40;;;;;;4931122;28;207785;-71
2022/09/02 10:55:34;;;;;;;9.65;1.17;;;32.60;45.00;;;;;;4947649;28;222586;-71
2022/09/02 10:58:07;;;;;;;9.30;1.13;;;32.30;45.10;;;;;;4978878;28;20054;-71
2022/09/02 11:00:39;;;;;;;5.43;1.15;;;32.20;45.10;;;;;;4956909;28;213501;-71
2022/09/02 11:03:27;;;;;;;7.00;1.13;;;32.20;45.30;;;;;;4991060;28;20066;-71
2022/09/02 11:06:19;;;;;;;7.03;0.93;;;32.40;44.50;;;;;;4943615;28;214661;-71
2022/09/02 11:08:48;;;;;;;4.85;1.10;;;32.70;45.40;;;;;;4986424;28;20062;-72
2022/09/02 11:11:20;;;;;;;7.40;1.00;;;32.80;45.30;;;;;;4938074;28;210241;-71
2022/09/02 11:13:55;;;;;;;9.55;1.00;;;33.10;44.90;;;;;;4972747;28;20050;-71
2022/09/02 11:16:30;;;;;;;5.32;1.00;;;33.70;44.60;;;;;;4951202;28;219490;-71
2022/09/02 11:19:17;;;;;;;7.45;0.90;;;34.00;43.70;;;;;;4990397;28;20054;-71
2022/09/02 11:22:04;;;;;;;5.10;0.98;;;34.20;43.40;;;;;;4960651;28;222521;-72
2022/09/02 11:24:50;;;;;;;6.28;0.98;;;34.20;43.30;;;;;;4991423;28;20077;-72
2022/09/02 11:27:16;;;;;;;7.63;1.10;;;34.30;42.80;;;;;;4947210;28;203821;-72
2022/09/02 11:30:01;;;;;;;4.80;1.08;;;34.20;42.60;;;;;;4968334;28;20096;-72
2022/09/02 11:32:43;;;;;;;4.53;1.17;;;34.30;42.90;;;;;;4908728;28;157662;-71
2022/09/02 11:35:17;;;;;;;6.97;1.13;;;34.60;42.50;;;;;;4943249;28;208826;-73
2022/09/02 11:37:51;;;;;;;6.45;1.00;;;34.80;42.80;;;;;;4996546;28;20403;-71
2022/09/02 11:40:33;;;;;;;7.72;1.23;;;34.80;41.20;;;;;;4946539;28;224528;-71
2022/09/02 11:43:24;;;;;;;8.68;1.10;;;34.80;42.60;;;;;;4998805;28;20065;-71
2022/09/02 11:46:32;;;;;;;4.32;0.90;;;35.10;42.70;;;;;;4948937;28;221697;-72
2022/09/02 11:49:06;;;;;;;8.60;1.27;;;35.50;42.30;;;;;;4986202;28;20058;-72
2022/09/02 11:51:56;;;;;;;9.20;1.23;;;35.50;41.60;;;;;;4950116;28;209766;-72
2022/09/02 11:54:24;;;;;;;8.38;1.10;;;35.40;40.80;;;;;;4994629;28;20058;-72
2022/09/02 11:56:58;;;;;;;4.95;0.90;;;35.00;40.90;;;;;;4952043;28;205974;-72
2022/09/02 12:00:03;;;;;;;6.00;1.10;;;35.10;41.70;;;;;;4991102;28;20054;-72
2022/09/02 12:02:37;;;;;;;5.47;1.10;;;35.50;40.30;;;;;;4930518;28;207331;-70
2022/09/02 12:05:28;;;;;;;7.27;0.90;;;35.60;41.40;;;;;;4930326;28;216730;-72
2022/09/02 12:07:59;;;;;;;4.93;1.02;;;35.70;39.80;;;;;;4997665;28;20053;-71
2022/09/02 12:10:38;;;;;;;4.78;1.20;;;35.80;40.60;;;;;;4949504;28;212972;-70
2022/09/02 12:13:06;;;;;;;7.80;1.17;;;35.80;39.90;;;;;;4993151;28;20069;-72
2022/09/02 12:15:36;;;;;;;5.95;1.02;;;35.80;39.50;;;;;;4947645;28;223738;-71
2022/09/02 12:18:30;;;;;;;9.02;1.00;;;35.80;39.90;;;;;;5003747;28;20065;-71
2022/09/02 12:20:57;;;;;;;6.03;0.95;;;36.30;39.80;;;;;;4942546;28;210852;-72
2022/09/02 12:23:51;;;;;;;3.60;1.00;;;36.30;40.70;;;;;;4982846;28;20055;-72
2022/09/02 12:26:37;;;;;;;6.30;1.00;;;36.20;38.90;;;;;;4938441;28;206068;-72
2022/09/02 12:29:18;;;;;;;9.95;0.98;;;36.20;40.30;;;;;;4986595;28;20054;-73
2022/09/02 12:31:52;;;;;;;5.47;1.00;;;36.60;38.00;;;;;;4947466;28;206550;-72
2022/09/02 12:34:24;;;;;;;7.38;1.20;;;36.60;39.70;;;;;;4995686;28;20058;-72
2022/09/02 12:36:51;;;;;;;5.88;0.90;;;36.70;38.70;;;;;;4948916;28;210029;-72
2022/09/02 12:39:24;;;;;;;5.32;1.00;;;36.90;39.60;;;;;;4994382;28;20054;-72
2022/09/02 12:42:02;;;;;;;6.90;1.13;;;37.20;38.70;;;;;;4941174;28;190087;-75
2022/09/02 12:44:44;;;;;;;4.68;1.00;;;37.20;38.60;;;;;;4995178;28;20054;-75
2022/09/02 12:47:24;;;;;;;6.03;0.95;;;36.90;38.80;;;;;;4958882;28;214132;-73
2022/09/02 12:50:17;;;;;;;4.45;1.00;;;36.70;38.70;;;;;;4990598;28;20132;-73
2022/09/02 12:52:48;;;;;;;6.35;1.15;;;36.70;37.90;;;;;;4940019;28;29572;-74
2022/09/02 12:55:22;;;;;;;6.10;1.00;;;36.70;38.70;;;;;;4937429;28;213427;-73
2022/09/02 12:57:50;;;;;;;7.38;1.10;;;36.80;37.70;;;;;;4988631;28;20503;-72
2022/09/02 13:00:25;;;;;;;5.63;1.00;;;36.90;39.50;;;;;;4949183;28;211300;-73
2022/09/02 13:03:07;;;;;;;4.82;1.00;;;37.20;38.30;;;;;;5003977;28;20054;-73